sensor_id;sensor_type;location;lat;lon;timestamp;temperature;humidity
51902;DHT22;37929;53.218;6.548;2023-07-31T00:00:27;16.30;99.90
51902;DHT22;37929;53.218;6.548;2023-07-31T00:02:53;16.30;99.90
51902;DHT22;37929;53.218;6.548;2023-07-31T00:05:19;16.30;99.90
51902;DHT22;37929;53.218;6.548;2023-07-31T00:07:45;16.30;99.90
51902;DHT22;37929;53.218;6.548;2023-07-31T00:10:10;16.30;99.90
51902;DHT22;37929;53.218;6.548;2023-07-31T00:12:41;16.20;99.90
51902;DHT22;37929;53.218;6.548;2023-07-31T00:15:08;16.30;99.90
51902;DHT22;37929;53.218;6.548;2023-07-31T00:17:34;16.20;99.90
51902;DHT22;37929;53.218;6.548;2023-07-31T00:19:59;16.20;99.90
51902;DHT22;37929;53.218;6.548;2023-07-31T00:22:25;16.10;99.90
51902;DHT22;37929;53.218;6.548;2023-07-31T00:24:51;16.10;99.90
51902;DHT22;37929;53.218;6.548;2023-07-31T00:27:17;16.00;99.90
51902;DHT22;37929;53.218;6.548;2023-07-31T00:29:43;16.00;99.90
51902;DHT22;37929;53.218;6.548;2023-07-31T00:32:08;15.90;99.90
51902;DHT22;37929;53.218;6.548;2023-07-31T00:34:34;15.90;99.90
51902;DHT22;37929;53.218;6.548;2023-07-31T00:37:00;15.80;99.90
51902;DHT22;37929;53.218;6.548;2023-07-31T00:39:26;15.80;99.90
51902;DHT22;37929;53.218;6.548;2023-07-31T00:41:51;15.70;99.90
51902;DHT22;37929;53.218;6.548;2023-07-31T00:44:17;15.60;99.90
51902;DHT22;37929;53.218;6.548;2023-07-31T00:46:43;15.70;99.90
51902;DHT22;37929;53.218;6.548;2023-07-31T00:49:10;15.70;99.90
51902;DHT22;37929;53.218;6.548;2023-07-31T00:51:36;15.60;99.90
51902;DHT22;37929;53.218;6.548;2023-07-31T00:54:03;15.60;99.90
51902;DHT22;37929;53.218;6.548;2023-07-31T00:56:29;15.60;99.90
51902;DHT22;37929;53.218;6.548;2023-07-31T00:58:55;15.60;99.90
51902;DHT22;37929;53.218;6.548;2023-07-31T01:01:22;15.50;99.90
51902;DHT22;37929;53.218;6.548;2023-07-31T01:03:48;15.50;99.90
51902;DHT22;37929;53.218;6.548;2023-07-31T01:09:12;15.50;99.90
51902;DHT22;37929;53.218;6.548;2023-07-31T01:12:09;15.50;99.90
51902;DHT22;37929;53.218;6.548;2023-07-31T01:14:37;15.50;99.90
51902;DHT22;37929;53.218;6.548;2023-07-31T01:17:02;15.50;99.90
51902;DHT22;37929;53.218;6.548;2023-07-31T01:19:28;15.50;99.90
51902;DHT22;37929;53.218;6.548;2023-07-31T01:27:34;15.50;99.90
51902;DHT22;37929;53.218;6.548;2023-07-31T01:30:08;15.50;99.90
51902;DHT22;37929;53.218;6.548;2023-07-31T01:32:40;15.50;99.90
51902;DHT22;37929;53.218;6.548;2023-07-31T01:35:07;15.50;99.90
51902;DHT22;37929;53.218;6.548;2023-07-31T01:37:34;15.50;99.90
51902;DHT22;37929;53.218;6.548;2023-07-31T01:40:00;15.50;99.90
51902;DHT22;37929;53.218;6.548;2023-07-31T01:42:25;15.50;99.90
51902;DHT22;37929;53.218;6.548;2023-07-31T01:44:51;15.50;99.90
51902;DHT22;37929;53.218;6.548;2023-07-31T01:47:17;15.50;99.90
51902;DHT22;37929;53.218;6.548;2023-07-31T01:49:43;15.50;99.90
51902;DHT22;37929;53.218;6.548;2023-07-31T01:52:08;15.50;99.90
51902;DHT22;37929;53.218;6.548;2023-07-31T01:54:34;15.50;99.90
51902;DHT22;37929;53.218;6.548;2023-07-31T01:57:02;15.50;99.90
51902;DHT22;37929;53.218;6.548;2023-07-31T01:59:28;15.50;99.90
51902;DHT22;37929;53.218;6.548;2023-07-31T02:01:54;15.50;99.90
51902;DHT22;37929;53.218;6.548;2023-07-31T02:04:20;15.50;99.90
51902;DHT22;37929;53.218;6.548;2023-07-31T02:06:46;15.40;99.90
51902;DHT22;37929;53.218;6.548;2023-07-31T02:09:11;15.50;99.90
51902;DHT22;37929;53.218;6.548;2023-07-31T02:11:37;15.40;99.90
51902;DHT22;37929;53.218;6.548;2023-07-31T02:14:03;15.40;99.90
51902;DHT22;37929;53.218;6.548;2023-07-31T02:16:29;15.40;99.90
51902;DHT22;37929;53.218;6.548;2023-07-31T02:18:55;15.40;99.90
51902;DHT22;37929;53.218;6.548;2023-07-31T02:21:21;15.40;99.90
51902;DHT22;37929;53.218;6.548;2023-07-31T02:23:47;15.50;99.90
51902;DHT22;37929;53.218;6.548;2023-07-31T02:26:12;15.40;99.90
51902;DHT22;37929;53.218;6.548;2023-07-31T02:28:38;15.40;99.90
51902;DHT22;37929;53.218;6.548;2023-07-31T02:31:05;15.40;99.90
51902;DHT22;37929;53.218;6.548;2023-07-31T02:33:31;15.40;99.90
51902;DHT22;37929;53.218;6.548;2023-07-31T02:35:56;15.40;99.90
51902;DHT22;37929;53.218;6.548;2023-07-31T02:38:22;15.40;99.90
51902;DHT22;37929;53.218;6.548;2023-07-31T02:40:48;15.40;99.90
51902;DHT22;37929;53.218;6.548;2023-07-31T02:43:14;15.50;99.90
51902;DHT22;37929;53.218;6.548;2023-07-31T02:45:39;15.40;99.90
51902;DHT22;37929;53.218;6.548;2023-07-31T02:48:05;15.40;99.90
51902;DHT22;37929;53.218;6.548;2023-07-31T02:50:31;15.40;99.90
51902;DHT22;37929;53.218;6.548;2023-07-31T02:52:57;15.50;99.90
51902;DHT22;37929;53.218;6.548;2023-07-31T02:55:23;15.40;99.90
51902;DHT22;37929;53.218;6.548;2023-07-31T02:57:49;15.40;99.90
51902;DHT22;37929;53.218;6.548;2023-07-31T03:00:15;15.40;99.90
51902;DHT22;37929;53.218;6.548;2023-07-31T03:02:40;15.40;99.90
51902;DHT22;37929;53.218;6.548;2023-07-31T03:05:06;15.40;99.90
51902;DHT22;37929;53.218;6.548;2023-07-31T03:07:32;15.50;99.90
51902;DHT22;37929;53.218;6.548;2023-07-31T03:09:58;15.40;99.90
51902;DHT22;37929;53.218;6.548;2023-07-31T03:12:24;15.40;99.90
51902;DHT22;37929;53.218;6.548;2023-07-31T03:14:52;15.40;99.90
51902;DHT22;37929;53.218;6.548;2023-07-31T03:17:17;15.40;99.90
51902;DHT22;37929;53.218;6.548;2023-07-31T03:19:43;15.40;99.90
51902;DHT22;37929;53.218;6.548;2023-07-31T03:22:09;15.40;99.90
51902;DHT22;37929;53.218;6.548;2023-07-31T03:24:34;15.40;99.90
51902;DHT22;37929;53.218;6.548;2023-07-31T03:27:07;15.40;99.90
51902;DHT22;37929;53.218;6.548;2023-07-31T03:29:39;15.40;99.90
51902;DHT22;37929;53.218;6.548;2023-07-31T03:32:05;15.40;99.90
51902;DHT22;37929;53.218;6.548;2023-07-31T03:34:30;15.30;99.90
51902;DHT22;37929;53.218;6.548;2023-07-31T03:36:58;15.30;99.90
51902;DHT22;37929;53.218;6.548;2023-07-31T03:39:26;15.40;99.90
51902;DHT22;37929;53.218;6.548;2023-07-31T03:41:52;15.30;99.90
51902;DHT22;37929;53.218;6.548;2023-07-31T03:44:18;15.30;99.90
51902;DHT22;37929;53.218;6.548;2023-07-31T03:46:44;15.30;99.90
51902;DHT22;37929;53.218;6.548;2023-07-31T03:49:09;15.30;99.90
51902;DHT22;37929;53.218;6.548;2023-07-31T03:51:35;15.30;99.90
51902;DHT22;37929;53.218;6.548;2023-07-31T03:54:01;15.30;99.90
51902;DHT22;37929;53.218;6.548;2023-07-31T03:56:26;15.30;99.90
51902;DHT22;37929;53.218;6.548;2023-07-31T03:58:52;15.30;99.90
51902;DHT22;37929;53.218;6.548;2023-07-31T04:01:19;15.30;99.90
51902;DHT22;37929;53.218;6.548;2023-07-31T04:03:45;15.30;99.90
51902;DHT22;37929;53.218;6.548;2023-07-31T04:06:10;15.30;99.90
51902;DHT22;37929;53.218;6.548;2023-07-31T04:08:36;15.30;99.90
51902;DHT22;37929;53.218;6.548;2023-07-31T04:11:02;15.30;99.90
51902;DHT22;37929;53.218;6.548;2023-07-31T04:13:29;15.30;99.90
51902;DHT22;37929;53.218;6.548;2023-07-31T04:15:55;15.30;99.90
51902;DHT22;37929;53.218;6.548;2023-07-31T04:18:21;15.30;99.90
51902;DHT22;37929;53.218;6.548;2023-07-31T04:20:47;15.30;99.90
51902;DHT22;37929;53.218;6.548;2023-07-31T04:23:13;15.30;99.90
51902;DHT22;37929;53.218;6.548;2023-07-31T04:25:39;15.30;99.90
51902;DHT22;37929;53.218;6.548;2023-07-31T04:28:05;15.30;99.90
51902;DHT22;37929;53.218;6.548;2023-07-31T04:30:30;15.30;99.90
51902;DHT22;37929;53.218;6.548;2023-07-31T04:32:56;15.30;99.90
51902;DHT22;37929;53.218;6.548;2023-07-31T04:35:22;15.30;99.90
51902;DHT22;37929;53.218;6.548;2023-07-31T04:37:47;15.30;99.90
51902;DHT22;37929;53.218;6.548;2023-07-31T04:40:15;15.30;99.90
51902;DHT22;37929;53.218;6.548;2023-07-31T04:42:41;15.30;99.90
51902;DHT22;37929;53.218;6.548;2023-07-31T04:45:09;15.30;99.90
51902;DHT22;37929;53.218;6.548;2023-07-31T04:47:34;15.30;99.90
51902;DHT22;37929;53.218;6.548;2023-07-31T04:50:00;15.30;99.90
51902;DHT22;37929;53.218;6.548;2023-07-31T04:52:26;15.30;99.90
51902;DHT22;37929;53.218;6.548;2023-07-31T04:54:52;15.30;99.90
51902;DHT22;37929;53.218;6.548;2023-07-31T04:57:17;15.30;99.90
51902;DHT22;37929;53.218;6.548;2023-07-31T04:59:43;15.30;99.90
51902;DHT22;37929;53.218;6.548;2023-07-31T05:02:12;15.40;99.90
51902;DHT22;37929;53.218;6.548;2023-07-31T05:04:39;15.30;99.90
51902;DHT22;37929;53.218;6.548;2023-07-31T05:07:04;15.40;99.90
51902;DHT22;37929;53.218;6.548;2023-07-31T05:09:30;15.40;99.90
51902;DHT22;37929;53.218;6.548;2023-07-31T05:11:56;15.40;99.90
51902;DHT22;37929;53.218;6.548;2023-07-31T05:14:22;15.40;99.90
51902;DHT22;37929;53.218;6.548;2023-07-31T05:16:47;15.40;99.90
51902;DHT22;37929;53.218;6.548;2023-07-31T05:19:13;15.40;99.90
51902;DHT22;37929;53.218;6.548;2023-07-31T05:21:40;15.40;99.90
51902;DHT22;37929;53.218;6.548;2023-07-31T05:24:06;15.40;99.90
51902;DHT22;37929;53.218;6.548;2023-07-31T05:26:32;15.50;99.90
51902;DHT22;37929;53.218;6.548;2023-07-31T05:28:58;15.50;99.90
51902;DHT22;37929;53.218;6.548;2023-07-31T05:31:24;15.50;99.90
51902;DHT22;37929;53.218;6.548;2023-07-31T05:33:50;15.50;99.90
51902;DHT22;37929;53.218;6.548;2023-07-31T05:36:17;15.50;99.90
51902;DHT22;37929;53.218;6.548;2023-07-31T05:38:42;15.50;99.90
51902;DHT22;37929;53.218;6.548;2023-07-31T05:41:14;15.50;99.90
51902;DHT22;37929;53.218;6.548;2023-07-31T05:43:41;15.50;99.90
51902;DHT22;37929;53.218;6.548;2023-07-31T05:46:09;15.50;99.90
51902;DHT22;37929;53.218;6.548;2023-07-31T05:48:35;15.50;99.90
51902;DHT22;37929;53.218;6.548;2023-07-31T05:51:00;15.50;99.90
51902;DHT22;37929;53.218;6.548;2023-07-31T05:53:26;15.50;99.90
51902;DHT22;37929;53.218;6.548;2023-07-31T05:55:52;15.60;99.90
51902;DHT22;37929;53.218;6.548;2023-07-31T05:58:18;15.60;99.90
51902;DHT22;37929;53.218;6.548;2023-07-31T06:00:43;15.60;99.90
51902;DHT22;37929;53.218;6.548;2023-07-31T06:03:09;15.60;99.90
51902;DHT22;37929;53.218;6.548;2023-07-31T06:05:35;15.60;99.90
51902;DHT22;37929;53.218;6.548;2023-07-31T06:08:01;15.60;99.90
51902;DHT22;37929;53.218;6.548;2023-07-31T06:10:27;15.70;99.90
51902;DHT22;37929;53.218;6.548;2023-07-31T06:12:53;15.70;99.90
51902;DHT22;37929;53.218;6.548;2023-07-31T06:15:19;15.70;99.90
51902;DHT22;37929;53.218;6.548;2023-07-31T06:17:45;15.80;99.90
51902;DHT22;37929;53.218;6.548;2023-07-31T06:20:11;15.80;99.90
51902;DHT22;37929;53.218;6.548;2023-07-31T06:22:37;15.80;99.90
51902;DHT22;37929;53.218;6.548;2023-07-31T06:25:03;15.80;99.90
51902;DHT22;37929;53.218;6.548;2023-07-31T06:27:29;15.80;99.90
51902;DHT22;37929;53.218;6.548;2023-07-31T06:29:58;15.80;99.90
51902;DHT22;37929;53.218;6.548;2023-07-31T06:32:24;15.80;99.90
51902;DHT22;37929;53.218;6.548;2023-07-31T06:34:50;15.90;99.90
51902;DHT22;37929;53.218;6.548;2023-07-31T06:37:16;15.90;99.90
51902;DHT22;37929;53.218;6.548;2023-07-31T06:39:42;16.00;99.90
51902;DHT22;37929;53.218;6.548;2023-07-31T06:42:07;16.00;99.90
51902;DHT22;37929;53.218;6.548;2023-07-31T06:44:33;16.00;99.90
51902;DHT22;37929;53.218;6.548;2023-07-31T06:46:59;16.10;99.90
51902;DHT22;37929;53.218;6.548;2023-07-31T06:49:25;16.10;99.90
51902;DHT22;37929;53.218;6.548;2023-07-31T06:51:51;16.20;99.90
51902;DHT22;37929;53.218;6.548;2023-07-31T06:54:16;16.20;99.90
51902;DHT22;37929;53.218;6.548;2023-07-31T06:56:42;16.30;99.90
51902;DHT22;37929;53.218;6.548;2023-07-31T06:59:08;16.30;99.90
51902;DHT22;37929;53.218;6.548;2023-07-31T07:01:34;16.40;99.90
51902;DHT22;37929;53.218;6.548;2023-07-31T07:03:59;16.40;99.90
51902;DHT22;37929;53.218;6.548;2023-07-31T07:06:25;16.50;99.90
51902;DHT22;37929;53.218;6.548;2023-07-31T07:08:51;16.50;99.90
51902;DHT22;37929;53.218;6.548;2023-07-31T07:11:17;16.50;99.90
51902;DHT22;37929;53.218;6.548;2023-07-31T07:13:42;16.50;99.90
51902;DHT22;37929;53.218;6.548;2023-07-31T07:16:08;16.60;99.90
51902;DHT22;37929;53.218;6.548;2023-07-31T07:18:35;16.60;99.90
51902;DHT22;37929;53.218;6.548;2023-07-31T07:21:01;16.60;99.90
51902;DHT22;37929;53.218;6.548;2023-07-31T07:23:28;16.60;99.90
51902;DHT22;37929;53.218;6.548;2023-07-31T07:25:54;16.60;99.90
51902;DHT22;37929;53.218;6.548;2023-07-31T07:28:19;16.60;99.90
51902;DHT22;37929;53.218;6.548;2023-07-31T07:30:50;16.70;99.90
51902;DHT22;37929;53.218;6.548;2023-07-31T07:33:16;16.60;99.90
51902;DHT22;37929;53.218;6.548;2023-07-31T07:35:41;16.60;99.90
51902;DHT22;37929;53.218;6.548;2023-07-31T07:38:07;16.60;99.90
51902;DHT22;37929;53.218;6.548;2023-07-31T07:40:33;16.60;99.90
51902;DHT22;37929;53.218;6.548;2023-07-31T07:43:03;16.60;99.90
51902;DHT22;37929;53.218;6.548;2023-07-31T07:45:29;16.60;99.90
51902;DHT22;37929;53.218;6.548;2023-07-31T07:47:55;16.70;99.90
51902;DHT22;37929;53.218;6.548;2023-07-31T07:50:21;16.60;99.90
51902;DHT22;37929;53.218;6.548;2023-07-31T07:52:47;16.60;99.90
51902;DHT22;37929;53.218;6.548;2023-07-31T07:55:12;16.70;99.90
51902;DHT22;37929;53.218;6.548;2023-07-31T07:57:38;16.60;99.90
51902;DHT22;37929;53.218;6.548;2023-07-31T08:00:05;16.60;99.90
51902;DHT22;37929;53.218;6.548;2023-07-31T08:02:31;16.50;99.90
51902;DHT22;37929;53.218;6.548;2023-07-31T08:04:57;16.50;99.90
51902;DHT22;37929;53.218;6.548;2023-07-31T08:07:23;16.40;99.90
51902;DHT22;37929;53.218;6.548;2023-07-31T08:09:49;16.40;99.90
51902;DHT22;37929;53.218;6.548;2023-07-31T08:12:14;16.40;99.90
51902;DHT22;37929;53.218;6.548;2023-07-31T08:14:40;16.40;99.90
51902;DHT22;37929;53.218;6.548;2023-07-31T08:17:06;16.40;99.90
51902;DHT22;37929;53.218;6.548;2023-07-31T08:19:32;16.40;99.90
51902;DHT22;37929;53.218;6.548;2023-07-31T08:22:01;16.40;99.90
51902;DHT22;37929;53.218;6.548;2023-07-31T08:24:27;16.50;99.90
51902;DHT22;37929;53.218;6.548;2023-07-31T08:26:53;16.50;99.90
51902;DHT22;37929;53.218;6.548;2023-07-31T08:29:18;16.50;99.90
51902;DHT22;37929;53.218;6.548;2023-07-31T08:31:44;16.50;99.90
51902;DHT22;37929;53.218;6.548;2023-07-31T08:34:10;16.50;99.90
51902;DHT22;37929;53.218;6.548;2023-07-31T08:36:36;16.60;99.90
51902;DHT22;37929;53.218;6.548;2023-07-31T08:39:04;16.60;99.90
51902;DHT22;37929;53.218;6.548;2023-07-31T08:41:40;16.60;99.90
51902;DHT22;37929;53.218;6.548;2023-07-31T08:44:07;16.60;99.90
51902;DHT22;37929;53.218;6.548;2023-07-31T08:46:33;16.60;99.90
51902;DHT22;37929;53.218;6.548;2023-07-31T08:49:00;16.70;99.90
51902;DHT22;37929;53.218;6.548;2023-07-31T08:51:30;16.70;99.90
51902;DHT22;37929;53.218;6.548;2023-07-31T08:53:56;16.80;99.90
51902;DHT22;37929;53.218;6.548;2023-07-31T08:56:23;16.80;99.90
51902;DHT22;37929;53.218;6.548;2023-07-31T08:58:51;16.80;99.90
51902;DHT22;37929;53.218;6.548;2023-07-31T09:01:18;16.80;99.90
51902;DHT22;37929;53.218;6.548;2023-07-31T09:03:45;16.80;99.90
51902;DHT22;37929;53.218;6.548;2023-07-31T09:06:12;16.80;99.90
51902;DHT22;37929;53.218;6.548;2023-07-31T09:08:41;16.80;99.90
51902;DHT22;37929;53.218;6.548;2023-07-31T09:11:07;16.80;99.90
51902;DHT22;37929;53.218;6.548;2023-07-31T09:13:33;16.90;99.90
51902;DHT22;37929;53.218;6.548;2023-07-31T09:16:02;16.90;99.90
51902;DHT22;37929;53.218;6.548;2023-07-31T09:18:28;16.90;99.90
51902;DHT22;37929;53.218;6.548;2023-07-31T09:21:02;16.90;99.90
51902;DHT22;37929;53.218;6.548;2023-07-31T09:23:43;16.90;99.90
51902;DHT22;37929;53.218;6.548;2023-07-31T09:26:09;16.90;99.90
51902;DHT22;37929;53.218;6.548;2023-07-31T09:28:35;16.90;99.90
51902;DHT22;37929;53.218;6.548;2023-07-31T09:31:00;16.90;99.90
51902;DHT22;37929;53.218;6.548;2023-07-31T09:33:26;17.00;99.90
51902;DHT22;37929;53.218;6.548;2023-07-31T09:35:52;17.00;99.90
51902;DHT22;37929;53.218;6.548;2023-07-31T09:38:18;17.00;99.90
51902;DHT22;37929;53.218;6.548;2023-07-31T09:40:48;17.00;99.90
51902;DHT22;37929;53.218;6.548;2023-07-31T09:43:20;17.00;99.90
51902;DHT22;37929;53.218;6.548;2023-07-31T09:45:46;17.10;99.90
51902;DHT22;37929;53.218;6.548;2023-07-31T09:48:18;17.10;99.90
51902;DHT22;37929;53.218;6.548;2023-07-31T09:50:46;17.10;99.90
51902;DHT22;37929;53.218;6.548;2023-07-31T09:53:12;17.20;99.90
51902;DHT22;37929;53.218;6.548;2023-07-31T09:55:40;17.20;99.90
51902;DHT22;37929;53.218;6.548;2023-07-31T09:58:08;17.20;99.90
51902;DHT22;37929;53.218;6.548;2023-07-31T10:00:34;17.20;99.90
51902;DHT22;37929;53.218;6.548;2023-07-31T10:03:11;17.20;99.90
51902;DHT22;37929;53.218;6.548;2023-07-31T10:05:51;17.30;99.90
51902;DHT22;37929;53.218;6.548;2023-07-31T10:08:21;17.30;99.90
51902;DHT22;37929;53.218;6.548;2023-07-31T10:10:49;17.30;99.90
51902;DHT22;37929;53.218;6.548;2023-07-31T10:13:15;17.30;99.90
51902;DHT22;37929;53.218;6.548;2023-07-31T10:15:42;17.40;99.90
51902;DHT22;37929;53.218;6.548;2023-07-31T10:18:11;17.40;99.90
51902;DHT22;37929;53.218;6.548;2023-07-31T10:20:38;17.40;99.90
51902;DHT22;37929;53.218;6.548;2023-07-31T10:23:04;17.40;99.90
51902;DHT22;37929;53.218;6.548;2023-07-31T10:25:30;17.40;99.90
51902;DHT22;37929;53.218;6.548;2023-07-31T10:27:57;17.40;99.90
51902;DHT22;37929;53.218;6.548;2023-07-31T10:30:28;17.40;99.90
51902;DHT22;37929;53.218;6.548;2023-07-31T10:32:55;17.40;99.90
51902;DHT22;37929;53.218;6.548;2023-07-31T10:35:22;17.50;99.90
51902;DHT22;37929;53.218;6.548;2023-07-31T10:37:48;17.50;99.90
51902;DHT22;37929;53.218;6.548;2023-07-31T10:40:27;17.50;99.90
51902;DHT22;37929;53.218;6.548;2023-07-31T10:42:55;17.50;99.90
51902;DHT22;37929;53.218;6.548;2023-07-31T10:45:30;17.60;99.90
51902;DHT22;37929;53.218;6.548;2023-07-31T10:48:00;17.60;99.90
51902;DHT22;37929;53.218;6.548;2023-07-31T10:50:31;17.60;99.90
51902;DHT22;37929;53.218;6.548;2023-07-31T10:53:00;17.60;99.90
51902;DHT22;37929;53.218;6.548;2023-07-31T10:55:43;17.60;99.90
51902;DHT22;37929;53.218;6.548;2023-07-31T10:58:13;17.60;99.90
51902;DHT22;37929;53.218;6.548;2023-07-31T11:00:44;17.50;99.90
51902;DHT22;37929;53.218;6.548;2023-07-31T11:03:15;17.60;99.90
51902;DHT22;37929;53.218;6.548;2023-07-31T11:08:24;17.70;99.90
51902;DHT22;37929;53.218;6.548;2023-07-31T11:13:47;17.70;99.90
51902;DHT22;37929;53.218;6.548;2023-07-31T11:16:19;17.80;99.90
51902;DHT22;37929;53.218;6.548;2023-07-31T11:18:48;17.80;99.90
51902;DHT22;37929;53.218;6.548;2023-07-31T11:21:20;17.90;99.90
51902;DHT22;37929;53.218;6.548;2023-07-31T11:23:52;18.00;99.90
51902;DHT22;37929;53.218;6.548;2023-07-31T11:26:18;18.00;99.90
51902;DHT22;37929;53.218;6.548;2023-07-31T11:28:47;18.10;99.90
51902;DHT22;37929;53.218;6.548;2023-07-31T11:31:13;18.10;99.90
51902;DHT22;37929;53.218;6.548;2023-07-31T11:33:39;18.10;99.90
51902;DHT22;37929;53.218;6.548;2023-07-31T11:36:10;18.10;99.90
51902;DHT22;37929;53.218;6.548;2023-07-31T11:38:39;18.10;99.90
51902;DHT22;37929;53.218;6.548;2023-07-31T11:41:05;18.00;99.90
51902;DHT22;37929;53.218;6.548;2023-07-31T11:43:31;18.00;99.90
51902;DHT22;37929;53.218;6.548;2023-07-31T11:46:01;17.90;99.90
51902;DHT22;37929;53.218;6.548;2023-07-31T11:48:36;17.90;99.90
51902;DHT22;37929;53.218;6.548;2023-07-31T11:51:05;17.80;99.90
51902;DHT22;37929;53.218;6.548;2023-07-31T11:53:47;17.80;99.90
51902;DHT22;37929;53.218;6.548;2023-07-31T11:56:19;17.80;99.90
51902;DHT22;37929;53.218;6.548;2023-07-31T11:58:49;17.80;99.90
51902;DHT22;37929;53.218;6.548;2023-07-31T12:01:16;17.90;99.90
51902;DHT22;37929;53.218;6.548;2023-07-31T12:03:44;17.80;99.90
51902;DHT22;37929;53.218;6.548;2023-07-31T12:06:10;17.90;99.90
51902;DHT22;37929;53.218;6.548;2023-07-31T12:08:36;18.00;99.90
51902;DHT22;37929;53.218;6.548;2023-07-31T12:11:09;18.00;99.90
51902;DHT22;37929;53.218;6.548;2023-07-31T12:13:35;18.00;99.90
51902;DHT22;37929;53.218;6.548;2023-07-31T12:16:03;18.10;99.90
51902;DHT22;37929;53.218;6.548;2023-07-31T12:18:34;18.10;99.90
51902;DHT22;37929;53.218;6.548;2023-07-31T12:21:02;18.10;99.90
51902;DHT22;37929;53.218;6.548;2023-07-31T12:23:31;18.20;99.90
51902;DHT22;37929;53.218;6.548;2023-07-31T12:26:11;18.20;99.90
51902;DHT22;37929;53.218;6.548;2023-07-31T12:28:47;18.20;99.90
51902;DHT22;37929;53.218;6.548;2023-07-31T12:31:18;18.20;99.90
51902;DHT22;37929;53.218;6.548;2023-07-31T12:33:46;18.20;99.90
51902;DHT22;37929;53.218;6.548;2023-07-31T12:36:14;18.10;99.90
51902;DHT22;37929;53.218;6.548;2023-07-31T12:38:41;18.20;99.90
51902;DHT22;37929;53.218;6.548;2023-07-31T12:41:07;18.20;99.90
51902;DHT22;37929;53.218;6.548;2023-07-31T12:43:34;18.30;99.90
51902;DHT22;37929;53.218;6.548;2023-07-31T12:46:00;18.30;99.90
51902;DHT22;37929;53.218;6.548;2023-07-31T12:48:26;18.30;99.90
51902;DHT22;37929;53.218;6.548;2023-07-31T12:50:52;18.40;99.90
51902;DHT22;37929;53.218;6.548;2023-07-31T12:53:17;18.40;99.90
51902;DHT22;37929;53.218;6.548;2023-07-31T12:55:43;18.40;99.90
51902;DHT22;37929;53.218;6.548;2023-07-31T12:58:09;18.40;99.90
51902;DHT22;37929;53.218;6.548;2023-07-31T13:00:35;18.40;99.90
51902;DHT22;37929;53.218;6.548;2023-07-31T13:03:01;18.30;99.90
51902;DHT22;37929;53.218;6.548;2023-07-31T13:05:28;18.30;99.90
51902;DHT22;37929;53.218;6.548;2023-07-31T13:07:54;18.30;99.90
51902;DHT22;37929;53.218;6.548;2023-07-31T13:10:23;18.40;99.90
51902;DHT22;37929;53.218;6.548;2023-07-31T13:12:52;18.40;99.90
51902;DHT22;37929;53.218;6.548;2023-07-31T13:15:18;18.50;99.90
51902;DHT22;37929;53.218;6.548;2023-07-31T13:17:44;18.40;99.90
51902;DHT22;37929;53.218;6.548;2023-07-31T13:20:10;18.40;99.90
51902;DHT22;37929;53.218;6.548;2023-07-31T13:22:36;18.40;99.90
51902;DHT22;37929;53.218;6.548;2023-07-31T13:25:01;18.40;99.90
51902;DHT22;37929;53.218;6.548;2023-07-31T13:27:30;18.40;99.90
51902;DHT22;37929;53.218;6.548;2023-07-31T13:29:59;18.40;99.90
51902;DHT22;37929;53.218;6.548;2023-07-31T13:32:25;18.50;99.90
51902;DHT22;37929;53.218;6.548;2023-07-31T13:34:51;18.50;99.90
51902;DHT22;37929;53.218;6.548;2023-07-31T13:37:17;18.50;99.90
51902;DHT22;37929;53.218;6.548;2023-07-31T13:39:43;18.50;99.90
51902;DHT22;37929;53.218;6.548;2023-07-31T13:42:09;18.50;99.90
51902;DHT22;37929;53.218;6.548;2023-07-31T13:44:41;18.40;99.90
51902;DHT22;37929;53.218;6.548;2023-07-31T13:47:07;18.50;99.90
51902;DHT22;37929;53.218;6.548;2023-07-31T13:49:34;18.50;99.90
51902;DHT22;37929;53.218;6.548;2023-07-31T13:52:01;18.50;99.90
51902;DHT22;37929;53.218;6.548;2023-07-31T13:54:27;18.60;99.90
51902;DHT22;37929;53.218;6.548;2023-07-31T13:56:53;18.60;99.90
51902;DHT22;37929;53.218;6.548;2023-07-31T13:59:19;18.70;99.90
51902;DHT22;37929;53.218;6.548;2023-07-31T14:01:45;18.70;99.90
51902;DHT22;37929;53.218;6.548;2023-07-31T14:04:11;18.80;99.90
51902;DHT22;37929;53.218;6.548;2023-07-31T14:06:37;18.80;99.90
51902;DHT22;37929;53.218;6.548;2023-07-31T14:09:03;18.80;99.90
51902;DHT22;37929;53.218;6.548;2023-07-31T14:11:30;18.80;99.90
51902;DHT22;37929;53.218;6.548;2023-07-31T14:13:56;18.70;99.90
51902;DHT22;37929;53.218;6.548;2023-07-31T14:16:22;18.70;99.90
51902;DHT22;37929;53.218;6.548;2023-07-31T14:18:48;18.70;99.90
51902;DHT22;37929;53.218;6.548;2023-07-31T14:21:14;18.70;99.90
51902;DHT22;37929;53.218;6.548;2023-07-31T14:23:40;18.60;99.90
51902;DHT22;37929;53.218;6.548;2023-07-31T14:26:06;18.60;99.90
51902;DHT22;37929;53.218;6.548;2023-07-31T14:28:32;18.60;99.90
51902;DHT22;37929;53.218;6.548;2023-07-31T14:30:58;18.60;99.90
51902;DHT22;37929;53.218;6.548;2023-07-31T14:33:24;18.60;99.90
51902;DHT22;37929;53.218;6.548;2023-07-31T14:35:50;18.60;99.90
51902;DHT22;37929;53.218;6.548;2023-07-31T14:38:15;18.60;99.90
51902;DHT22;37929;53.218;6.548;2023-07-31T14:40:41;18.50;99.90
51902;DHT22;37929;53.218;6.548;2023-07-31T14:43:07;18.60;99.90
51902;DHT22;37929;53.218;6.548;2023-07-31T14:45:33;18.60;99.90
51902;DHT22;37929;53.218;6.548;2023-07-31T14:48:00;18.60;99.90
51902;DHT22;37929;53.218;6.548;2023-07-31T14:50:25;18.60;99.90
51902;DHT22;37929;53.218;6.548;2023-07-31T14:52:52;18.60;99.90
51902;DHT22;37929;53.218;6.548;2023-07-31T14:55:18;18.60;99.90
51902;DHT22;37929;53.218;6.548;2023-07-31T14:57:44;18.60;99.90
51902;DHT22;37929;53.218;6.548;2023-07-31T15:00:11;18.60;99.90
51902;DHT22;37929;53.218;6.548;2023-07-31T15:02:40;18.60;99.90
51902;DHT22;37929;53.218;6.548;2023-07-31T15:05:07;18.60;99.90
51902;DHT22;37929;53.218;6.548;2023-07-31T15:07:36;18.60;99.90
51902;DHT22;37929;53.218;6.548;2023-07-31T15:10:03;18.60;99.90
51902;DHT22;37929;53.218;6.548;2023-07-31T15:12:31;18.50;99.90
51902;DHT22;37929;53.218;6.548;2023-07-31T15:14:57;18.50;99.90
51902;DHT22;37929;53.218;6.548;2023-07-31T15:17:23;18.50;99.90
51902;DHT22;37929;53.218;6.548;2023-07-31T15:19:49;18.50;99.90
51902;DHT22;37929;53.218;6.548;2023-07-31T15:22:15;18.50;99.90
51902;DHT22;37929;53.218;6.548;2023-07-31T15:24:41;18.50;99.90
51902;DHT22;37929;53.218;6.548;2023-07-31T15:27:07;18.50;99.90
51902;DHT22;37929;53.218;6.548;2023-07-31T15:29:34;18.50;99.90
51902;DHT22;37929;53.218;6.548;2023-07-31T15:32:04;18.50;99.90
51902;DHT22;37929;53.218;6.548;2023-07-31T15:34:30;18.40;99.90
51902;DHT22;37929;53.218;6.548;2023-07-31T15:36:56;18.40;99.90
51902;DHT22;37929;53.218;6.548;2023-07-31T15:39:21;18.50;99.90
51902;DHT22;37929;53.218;6.548;2023-07-31T15:41:47;18.50;99.90